createdAt,value
2024-02-05T00:00:26.405Z,399.42
2024-02-05T00:01:28.763Z,408.50
2024-02-05T00:02:33.617Z,438.50
2024-02-05T00:03:35.884Z,422.33
2024-02-05T00:04:40.943Z,398.08
2024-02-05T00:05:43.137Z,407.98
2024-02-05T00:06:47.984Z,423.73
2024-02-05T00:07:51.859Z,426.52
2024-02-05T00:08:58.328Z,434.38
2024-02-05T00:10:06.862Z,423.85
2024-02-05T00:11:11.660Z,429.80
2024-02-05T00:12:13.919Z,426.40
2024-02-05T00:13:18.790Z,425.35
2024-02-05T00:14:20.975Z,432.63
2024-02-05T00:15:25.718Z,374.42
2024-02-05T00:16:27.844Z,430.80
2024-02-05T00:17:30.046Z,428.85
2024-02-05T00:18:35.422Z,426.70
2024-02-05T00:19:37.837Z,426.83
2024-02-05T00:20:42.635Z,438.88
2024-02-05T00:21:44.765Z,439.02
2024-02-05T00:22:49.513Z,434.08
2024-02-05T00:23:51.787Z,451.85
2024-02-05T00:24:56.643Z,445.15
2024-02-05T00:26:01.749Z,465.05
2024-02-05T00:27:06.846Z,436.20
2024-02-05T00:28:09.297Z,453.80
2024-02-05T00:29:14.186Z,468.50
2024-02-05T00:30:17.041Z,441.98
2024-02-05T00:31:21.830Z,459.17
2024-02-05T00:32:24.052Z,450.08
2024-02-05T00:33:29.031Z,483.70
2024-02-05T00:34:32.049Z,485.10
2024-02-05T00:35:36.920Z,485.58
2024-02-05T00:36:39.757Z,497.17
2024-02-05T00:37:44.508Z,502.55
2024-02-05T00:38:46.626Z,495.70
2024-02-05T00:39:51.473Z,508.55
2024-02-05T00:40:54.928Z,480.90
2024-02-05T00:42:02.249Z,442.50
2024-02-05T00:43:05.189Z,492.90
2024-02-05T00:44:09.957Z,501.27
2024-02-05T00:45:13.378Z,503.08
2024-02-05T00:46:24.886Z,532.70
2024-02-05T00:48:33.796Z,491.92
2024-02-05T00:49:36.244Z,521.03
2024-02-05T00:50:42.944Z,534.85
2024-02-05T00:51:45.400Z,522.80
2024-02-05T00:52:50.249Z,533.00
2024-02-05T00:53:52.455Z,492.73
2024-02-05T00:54:57.341Z,523.25
2024-02-05T00:55:59.626Z,492.98
2024-02-05T00:57:07.430Z,474.08
2024-02-05T00:58:09.698Z,494.95
2024-02-05T00:59:14.928Z,507.90
2024-02-05T01:00:19.603Z,495.77
2024-02-05T01:01:25.138Z,580.55
2024-02-05T01:02:28.168Z,651.97
2024-02-05T01:03:33.018Z,660.08
2024-02-05T01:04:35.740Z,659.65
2024-02-05T01:05:40.955Z,663.88
2024-02-05T01:06:43.637Z,677.88
2024-02-05T01:07:46.216Z,673.38
2024-02-05T01:08:51.681Z,650.47
2024-02-05T01:09:53.986Z,668.15
2024-02-05T01:10:58.841Z,672.50
2024-02-05T01:12:04.695Z,674.03
2024-02-05T01:13:09.652Z,680.88
2024-02-05T01:14:11.874Z,657.63
2024-02-05T01:15:17.081Z,695.22
2024-02-05T01:16:19.441Z,658.03
2024-02-05T01:17:24.279Z,680.63
2024-02-05T01:18:26.625Z,675.78
2024-02-05T01:19:29.008Z,679.70
2024-02-05T01:20:34.017Z,659.75
2024-02-05T01:21:36.530Z,659.60
2024-02-05T01:22:39.538Z,663.75
2024-02-05T01:23:44.340Z,673.30
2024-02-05T01:24:46.794Z,656.30
2024-02-05T01:25:51.715Z,666.25
2024-02-05T01:26:53.942Z,683.95
2024-02-05T01:28:01.761Z,674.63
2024-02-05T01:29:03.977Z,665.53
2024-02-05T01:30:09.657Z,670.13
2024-02-05T01:31:12.171Z,668.80
2024-02-05T01:32:17.493Z,665.00
2024-02-05T01:33:19.785Z,660.58
2024-02-05T01:34:24.847Z,685.92
2024-02-05T01:35:27.189Z,687.75
2024-02-05T01:36:32.701Z,684.97
2024-02-05T01:37:34.833Z,670.00
2024-02-05T01:38:39.625Z,690.33
2024-02-05T01:39:41.873Z,671.72
2024-02-05T01:40:46.728Z,666.13
2024-02-05T01:41:48.909Z,665.67
2024-02-05T01:42:53.710Z,658.70
2024-02-05T01:43:58.623Z,686.38
2024-02-05T01:45:03.363Z,659.20
2024-02-05T01:46:06.477Z,683.30
2024-02-05T01:47:11.660Z,664.97
2024-02-05T01:48:17.348Z,704.58
2024-02-05T01:49:22.591Z,680.08
2024-02-05T01:50:25.220Z,667.88
2024-02-05T01:51:30.139Z,669.40
2024-02-05T01:52:34.925Z,670.70
2024-02-05T01:53:40.363Z,666.05
2024-02-05T01:54:43.562Z,675.22
2024-02-05T01:55:51.842Z,679.25
2024-02-05T01:56:56.307Z,662.20
2024-02-05T01:58:01.813Z,650.72
2024-02-05T01:59:07.893Z,659.97
2024-02-05T02:00:16.089Z,663.78
2024-02-05T02:01:18.827Z,677.47
2024-02-05T02:02:24.907Z,658.05
2024-02-05T02:03:28.226Z,661.50
2024-02-05T02:04:34.351Z,642.05
2024-02-05T02:05:37.442Z,659.80
2024-02-05T02:06:41.988Z,673.22
2024-02-05T02:07:47.231Z,675.40
2024-02-05T02:08:49.815Z,668.45
2024-02-05T02:09:54.829Z,664.30
2024-02-05T02:10:57.615Z,674.05
2024-02-05T02:12:03.579Z,675.30
2024-02-05T02:13:06.001Z,657.00
2024-02-05T02:14:13.676Z,640.97
2024-02-05T02:15:16.186Z,624.80
2024-02-05T02:16:26.033Z,633.53
2024-02-05T02:17:30.817Z,642.78
2024-02-05T02:18:38.442Z,658.13
2024-02-05T02:19:45.307Z,657.33
2024-02-05T02:20:50.928Z,639.40
2024-02-05T02:21:59.724Z,635.78
2024-02-05T02:23:10.530Z,639.13
2024-02-05T02:24:15.635Z,608.83
2024-02-05T02:25:20.695Z,650.83
2024-02-05T02:26:22.954Z,645.28
2024-02-05T02:27:27.897Z,655.53
2024-02-05T02:28:30.166Z,641.67
2024-02-05T02:29:34.984Z,672.75
2024-02-05T02:30:41.040Z,671.35
2024-02-05T02:31:49.149Z,639.10
2024-02-05T02:33:00.678Z,623.38
2024-02-05T02:35:26.034Z,441.02
2024-02-05T02:37:41.597Z,452.08
2024-02-05T02:38:50.296Z,61.22
2024-02-05T02:40:00.295Z,77.63
2024-02-05T02:41:08.929Z,85.13
2024-02-05T02:42:12.447Z,94.22
2024-02-05T02:43:18.850Z,111.43
2024-02-05T02:44:22.270Z,126.32
2024-02-05T02:45:27.917Z,422.90
2024-02-05T02:46:30.608Z,450.15
2024-02-05T02:47:35.416Z,460.25
2024-02-05T02:48:37.784Z,475.55
2024-02-05T02:49:42.756Z,503.33
2024-02-05T02:50:44.892Z,494.98
2024-02-05T02:51:49.716Z,532.88
2024-02-05T02:52:51.915Z,558.03
2024-02-05T02:53:56.688Z,539.42
2024-02-05T02:55:01.767Z,525.22
2024-02-05T02:56:08.229Z,530.38
2024-02-05T02:57:10.352Z,565.67
2024-02-05T02:58:15.422Z,554.42
2024-02-05T02:59:17.959Z,551.55
2024-02-05T03:00:23.208Z,576.35
2024-02-05T03:01:25.636Z,601.95
2024-02-05T03:02:30.432Z,481.38
2024-02-05T03:03:33.135Z,382.30
2024-02-05T03:04:37.955Z,368.27
2024-02-05T03:05:40.253Z,335.48
2024-02-05T03:06:45.110Z,323.98
2024-02-05T03:07:47.500Z,228.88
2024-02-05T03:08:52.306Z,167.93
2024-02-05T03:09:55.214Z,219.02
2024-02-05T03:11:02.895Z,228.57
2024-02-05T03:12:05.888Z,223.57
2024-02-05T03:13:11.344Z,166.93
2024-02-05T03:14:13.510Z,221.15
2024-02-05T03:15:18.293Z,271.60
2024-02-05T03:16:20.514Z,237.60
2024-02-05T03:17:25.331Z,417.55
2024-02-05T03:18:27.540Z,483.88
2024-02-05T03:19:33.355Z,511.83
2024-02-05T03:20:37.349Z,594.08
2024-02-05T03:21:42.191Z,680.00
2024-02-05T03:22:50.152Z,622.58
2024-02-05T03:23:57.964Z,624.58
2024-02-05T03:25:00.178Z,610.22
2024-02-05T03:26:07.994Z,604.60
2024-02-05T03:27:10.769Z,602.75
2024-02-05T03:28:15.637Z,555.95
2024-02-05T03:29:17.847Z,528.47
2024-02-05T03:30:20.029Z,552.42
2024-02-05T03:31:24.896Z,507.02
2024-02-05T03:32:27.206Z,553.97
2024-02-05T03:33:31.953Z,529.03
2024-02-05T03:34:34.350Z,564.45
2024-02-05T03:35:37.722Z,553.53
2024-02-05T03:36:42.592Z,529.00
2024-02-05T03:37:44.783Z,517.03
2024-02-05T03:38:49.472Z,536.00
2024-02-05T03:39:51.736Z,552.88
2024-02-05T03:40:56.508Z,554.15
2024-02-05T03:42:01.298Z,552.10
2024-02-05T03:43:06.229Z,551.10
2024-02-05T03:44:08.441Z,551.17
2024-02-05T03:45:13.398Z,557.97
2024-02-05T03:46:15.662Z,582.38
2024-02-05T03:47:20.547Z,535.80
2024-02-05T03:48:22.897Z,536.80
2024-02-05T03:49:27.684Z,531.65
2024-02-05T03:50:32.192Z,547.00
2024-02-05T03:51:38.195Z,422.42
2024-02-05T03:52:41.397Z,412.52
2024-02-05T03:53:48.196Z,389.70
2024-02-05T03:54:50.371Z,395.42
2024-02-05T03:55:55.164Z,383.90
2024-02-05T03:56:59.970Z,374.00
2024-02-05T03:58:07.939Z,89.43
2024-02-05T03:59:11.392Z,103.05
2024-02-05T04:00:17.148Z,136.27
2024-02-05T04:01:19.447Z,160.18
2024-02-05T04:02:26.678Z,289.75
2024-02-05T04:03:28.913Z,290.38
2024-02-05T04:04:33.884Z,292.65
2024-02-05T04:05:36.264Z,289.38
2024-02-05T04:06:41.115Z,307.63
2024-02-05T04:07:43.640Z,341.92
2024-02-05T04:08:48.937Z,394.98
2024-02-05T04:09:51.039Z,409.98
2024-02-05T04:10:55.902Z,459.85
2024-02-05T04:11:58.051Z,516.63
2024-02-05T04:13:02.853Z,489.02
2024-02-05T04:14:11.479Z,415.77
2024-02-05T04:15:16.555Z,383.75
2024-02-05T04:16:18.779Z,387.30
2024-02-05T04:17:23.550Z,384.88
2024-02-05T04:18:25.711Z,360.27
2024-02-05T04:19:30.582Z,389.35
2024-02-05T04:20:32.772Z,358.83
2024-02-05T04:21:37.844Z,373.02
2024-02-05T04:22:40.051Z,372.27
2024-02-05T04:23:44.734Z,405.02
2024-02-05T04:24:46.840Z,357.77
2024-02-05T04:25:51.597Z,161.38
2024-02-05T04:26:53.742Z,217.95
2024-02-05T04:27:58.450Z,244.30
2024-02-05T04:29:00.885Z,397.05
2024-02-05T04:30:09.858Z,416.90
2024-02-05T04:31:14.172Z,417.45
2024-02-05T04:32:19.073Z,417.70
2024-02-05T04:33:21.247Z,437.92
2024-02-05T04:34:23.471Z,443.63
2024-02-05T04:35:28.820Z,452.88
2024-02-05T04:36:33.529Z,440.90
2024-02-05T04:37:35.754Z,455.95
2024-02-05T04:38:40.528Z,474.60
2024-02-05T04:39:42.594Z,472.50
2024-02-05T04:40:47.461Z,472.95
2024-02-05T04:41:49.999Z,462.58
2024-02-05T04:42:54.741Z,497.05
2024-02-05T04:43:57.148Z,496.20
2024-02-05T04:45:01.839Z,504.42
2024-02-05T04:46:08.951Z,503.27
2024-02-05T04:47:13.749Z,491.02
2024-02-05T04:48:21.394Z,488.38
2024-02-05T04:49:26.456Z,497.13
2024-02-05T04:50:28.779Z,509.70
2024-02-05T04:51:33.661Z,511.52
2024-02-05T04:52:35.831Z,540.00
2024-02-05T04:53:40.594Z,580.00
2024-02-05T04:54:44.899Z,585.38
2024-02-05T04:55:50.131Z,574.30
2024-02-05T04:56:52.312Z,583.08
2024-02-05T04:57:57.119Z,600.05
2024-02-05T04:58:59.330Z,613.92
2024-02-05T05:00:05.686Z,617.97
2024-02-05T05:01:12.928Z,602.60
2024-02-05T05:02:18.138Z,620.10
2024-02-05T05:03:20.369Z,613.03
2024-02-05T05:04:26.357Z,628.10
2024-02-05T05:05:29.013Z,613.03
2024-02-05T05:06:33.743Z,641.80
2024-02-05T05:07:35.958Z,620.17
2024-02-05T05:08:40.692Z,631.92
2024-02-05T05:09:42.866Z,614.45
2024-02-05T05:10:47.959Z,621.00
2024-02-05T05:11:50.074Z,617.83
2024-02-05T05:12:52.410Z,638.83
2024-02-05T05:13:57.335Z,634.90
2024-02-05T05:14:59.485Z,623.95
2024-02-05T05:16:05.833Z,655.65
2024-02-05T05:17:10.760Z,633.38
2024-02-05T05:18:15.803Z,612.80
2024-02-05T05:19:19.172Z,628.72
2024-02-05T05:20:24.079Z,627.22
2024-02-05T05:21:28.310Z,636.38
2024-02-05T05:22:33.285Z,625.10
2024-02-05T05:23:35.428Z,633.88
2024-02-05T05:24:40.528Z,674.55
2024-02-05T05:25:43.982Z,641.70
2024-02-05T05:26:48.715Z,649.13
2024-02-05T05:27:51.043Z,639.13
2024-02-05T05:28:56.237Z,628.25
2024-02-05T05:29:58.429Z,650.03
2024-02-05T05:31:03.983Z,662.90
2024-02-05T05:32:06.999Z,633.92
2024-02-05T05:33:14.390Z,653.50
2024-02-05T05:34:16.762Z,645.72
2024-02-05T05:35:21.731Z,634.17
2024-02-05T05:36:24.502Z,646.92
2024-02-05T05:37:29.371Z,647.85
2024-02-05T05:38:31.675Z,651.58
2024-02-05T05:39:36.703Z,655.60
2024-02-05T05:40:39.118Z,652.63
2024-02-05T05:41:43.866Z,671.63
2024-02-05T05:42:46.117Z,672.22
2024-02-05T05:43:53.633Z,669.15
2024-02-05T05:44:55.845Z,649.28
2024-02-05T05:46:01.179Z,669.72
2024-02-05T05:47:03.958Z,664.92
2024-02-05T05:48:11.545Z,659.50
2024-02-05T05:49:16.675Z,649.25
2024-02-05T05:50:21.693Z,649.58
2024-02-05T05:51:23.911Z,651.60
2024-02-05T05:52:26.938Z,643.50
2024-02-05T05:53:31.869Z,633.10
2024-02-05T05:54:34.087Z,657.35
2024-02-05T05:55:38.971Z,657.50
2024-02-05T05:56:41.098Z,654.70
2024-02-05T05:57:45.799Z,654.17
2024-02-05T05:58:48.319Z,655.53
2024-02-05T05:59:53.223Z,642.13
2024-02-05T06:00:55.480Z,654.05
2024-02-05T06:02:00.469Z,631.67
2024-02-05T06:03:07.669Z,642.35
2024-02-05T06:04:09.883Z,647.53
2024-02-05T06:05:17.498Z,653.60
2024-02-05T06:06:19.662Z,641.20
2024-02-05T06:07:24.645Z,631.63
2024-02-05T06:08:26.808Z,643.40
2024-02-05T06:09:32.094Z,649.58
2024-02-05T06:10:34.860Z,663.53
2024-02-05T06:11:39.725Z,631.65
2024-02-05T06:12:42.369Z,664.83
2024-02-05T06:13:47.258Z,683.80
2024-02-05T06:14:49.371Z,667.83
2024-02-05T06:15:54.152Z,661.25
2024-02-05T06:16:56.456Z,663.35
2024-02-05T06:18:01.233Z,648.47
2024-02-05T06:19:03.502Z,657.25
2024-02-05T06:20:12.923Z,639.85
2024-02-05T06:22:24.821Z,590.33
2024-02-05T06:23:27.744Z,615.10
2024-02-05T06:24:33.520Z,643.10
2024-02-05T06:25:35.674Z,656.08
2024-02-05T06:26:40.439Z,654.40
2024-02-05T06:27:42.745Z,675.28
2024-02-05T06:28:47.535Z,661.50
2024-02-05T06:29:49.781Z,643.25
2024-02-05T06:30:52.179Z,654.00
2024-02-05T06:31:56.943Z,653.58
2024-02-05T06:32:59.105Z,632.15
2024-02-05T06:34:08.578Z,651.50
2024-02-05T06:35:12.636Z,639.92
2024-02-05T06:36:15.077Z,635.03
2024-02-05T06:37:23.050Z,634.92
2024-02-05T06:38:25.315Z,622.80
2024-02-05T06:39:30.240Z,629.75
2024-02-05T06:40:32.466Z,652.75
2024-02-05T06:41:39.054Z,631.83
2024-02-05T06:42:41.230Z,621.17
2024-02-05T06:43:47.651Z,642.90
2024-02-05T06:44:50.444Z,631.13
2024-02-05T06:45:55.461Z,637.90
2024-02-05T06:46:57.617Z,637.83
2024-02-05T06:48:02.496Z,648.50
2024-02-05T06:49:04.801Z,645.30
2024-02-05T06:50:13.154Z,640.22
2024-02-05T06:51:18.365Z,627.83
2024-02-05T06:52:25.918Z,618.30
2024-02-05T06:53:28.440Z,623.35
2024-02-05T06:54:34.293Z,632.95
2024-02-05T06:55:36.693Z,625.55
2024-02-05T06:56:41.914Z,637.40
2024-02-05T06:57:44.047Z,652.03
2024-02-05T06:58:48.779Z,637.90
2024-02-05T06:59:51.454Z,635.20
2024-02-05T07:00:56.227Z,651.10
2024-02-05T07:01:58.733Z,644.95
2024-02-05T07:03:04.058Z,638.72
2024-02-05T07:04:06.545Z,642.95
2024-02-05T07:05:13.444Z,640.42
2024-02-05T07:06:15.646Z,636.75
2024-02-05T07:07:20.910Z,656.20
2024-02-05T07:08:25.725Z,645.42
2024-02-05T07:09:30.532Z,628.20
2024-02-05T07:10:32.986Z,651.30
2024-02-05T07:11:39.038Z,646.03
2024-02-05T07:12:41.658Z,645.22
2024-02-05T07:13:46.340Z,677.58
2024-02-05T07:14:48.524Z,668.30
2024-02-05T07:15:53.270Z,669.63
2024-02-05T07:16:55.480Z,663.60
2024-02-05T07:18:00.228Z,652.97
2024-02-05T07:19:02.520Z,649.17
2024-02-05T07:20:08.709Z,656.38
2024-02-05T07:21:11.043Z,653.70
2024-02-05T07:22:17.013Z,651.30
2024-02-05T07:23:19.225Z,644.72
2024-02-05T07:24:26.632Z,653.15
2024-02-05T07:25:30.247Z,637.28
2024-02-05T07:26:39.785Z,649.40
2024-02-05T07:27:42.067Z,641.88
2024-02-05T07:28:46.809Z,640.47
2024-02-05T07:29:48.953Z,659.00
2024-02-05T07:30:53.872Z,651.13
2024-02-05T07:31:56.228Z,644.78
2024-02-05T07:33:00.917Z,652.25
2024-02-05T07:34:03.117Z,656.95
2024-02-05T07:35:08.911Z,640.20
2024-02-05T07:36:11.502Z,654.70
2024-02-05T07:37:16.621Z,658.42
2024-02-05T07:38:20.272Z,658.53
2024-02-05T07:39:27.946Z,649.63
2024-02-05T07:40:30.144Z,643.25
2024-02-05T07:41:34.876Z,638.63
2024-02-05T07:42:37.051Z,638.17
2024-02-05T07:43:42.818Z,647.60
2024-02-05T07:44:45.240Z,637.47
2024-02-05T07:45:50.325Z,637.78
2024-02-05T07:46:52.980Z,653.67
2024-02-05T07:47:58.088Z,668.33
2024-02-05T07:49:00.339Z,671.72
2024-02-05T07:50:05.231Z,648.53
2024-02-05T07:51:07.434Z,671.17
2024-02-05T07:52:12.409Z,652.80
2024-02-05T07:53:14.876Z,647.10
2024-02-05T07:54:20.603Z,660.72
2024-02-05T07:55:25.342Z,647.72
2024-02-05T07:56:29.987Z,649.22
2024-02-05T07:57:32.262Z,659.20
2024-02-05T07:58:37.129Z,656.47
2024-02-05T07:59:39.272Z,646.17
2024-02-05T08:00:46.664Z,670.67
2024-02-05T08:01:49.045Z,667.97
2024-02-05T08:02:53.817Z,665.55
2024-02-05T08:03:56.170Z,668.75
2024-02-05T08:04:58.483Z,663.47
2024-02-05T08:06:07.922Z,674.75
2024-02-05T08:07:10.272Z,66.13
2024-02-05T08:08:15.086Z,56.92
2024-02-05T08:09:17.506Z,59.22
2024-02-05T08:10:22.526Z,49.67
2024-02-05T08:11:27.454Z,49.88
2024-02-05T08:12:32.147Z,49.08
2024-02-05T08:13:34.313Z,53.03
2024-02-05T08:14:39.203Z,57.20
2024-02-05T08:15:42.115Z,53.90
2024-02-05T08:16:47.098Z,57.30
2024-02-05T08:17:49.355Z,58.28
2024-02-05T08:18:54.832Z,54.38
2024-02-05T08:19:57.050Z,61.05
2024-02-05T08:21:01.851Z,54.45
2024-02-05T08:22:04.215Z,49.05
2024-02-05T08:23:09.082Z,54.85
2024-02-05T08:24:11.254Z,47.78
2024-02-05T08:25:16.206Z,43.58
2024-02-05T08:26:18.792Z,40.78
2024-02-05T08:27:26.102Z,42.42
2024-02-05T08:28:28.252Z,68.32
2024-02-05T08:29:32.977Z,88.35
2024-02-05T08:30:35.266Z,120.05
2024-02-05T08:31:40.962Z,59.45
2024-02-05T08:32:43.196Z,23.20
2024-02-05T08:33:47.990Z,25.98
2024-02-05T08:34:50.245Z,22.95
2024-02-05T08:35:55.165Z,26.55
2024-02-05T08:36:57.362Z,30.75
2024-02-05T08:37:59.638Z,29.52
2024-02-05T08:39:04.548Z,29.27
2024-02-05T08:40:08.537Z,32.75
2024-02-05T08:41:13.945Z,28.33
2024-02-05T08:42:21.583Z,26.52
2024-02-05T08:43:36.504Z,35.85
2024-02-05T08:44:38.664Z,32.28
2024-02-05T08:45:43.588Z,33.42
2024-02-05T08:46:45.789Z,33.85
2024-02-05T08:47:50.949Z,42.03
2024-02-05T08:48:53.215Z,44.00
2024-02-05T08:49:58.076Z,49.28
2024-02-05T08:51:00.238Z,49.45
2024-02-05T08:52:05.123Z,50.20
2024-02-05T08:53:08.276Z,39.05
2024-02-05T08:54:14.114Z,32.35
2024-02-05T08:55:16.279Z,26.38
2024-02-05T08:56:21.051Z,30.02
2024-02-05T08:57:25.256Z,26.55
2024-02-05T08:58:27.993Z,20.35
2024-02-05T08:59:35.488Z,25.65
2024-02-05T09:00:37.584Z,23.65
2024-02-05T09:01:43.725Z,20.27
2024-02-05T09:02:46.650Z,24.20
2024-02-05T09:03:51.547Z,31.92
2024-02-05T09:04:53.741Z,32.08
2024-02-05T09:06:00.189Z,41.20
2024-02-05T09:07:02.664Z,38.60
2024-02-05T09:08:08.453Z,51.72
2024-02-05T09:09:11.101Z,64.13
2024-02-05T09:10:15.822Z,106.15
2024-02-05T09:11:20.136Z,221.15
2024-02-05T09:12:24.911Z,271.13
2024-02-05T09:13:27.131Z,290.58
2024-02-05T09:14:31.935Z,301.05
2024-02-05T09:15:37.259Z,387.88
2024-02-05T09:16:41.938Z,546.28
2024-02-05T09:17:44.113Z,515.42
2024-02-05T09:18:48.978Z,493.55
2024-02-05T09:19:52.195Z,532.40
2024-02-05T09:20:56.994Z,587.47
2024-02-05T09:21:59.277Z,617.25
2024-02-05T09:23:03.987Z,616.40
2024-02-05T09:24:06.765Z,604.40
2024-02-05T09:25:11.564Z,598.78
2024-02-05T09:26:13.712Z,581.42
2024-02-05T09:27:18.670Z,595.55
2024-02-05T09:28:22.369Z,550.00
2024-02-05T09:29:27.355Z,605.53
2024-02-05T09:30:29.460Z,638.33
2024-02-05T09:31:36.796Z,648.88
2024-02-05T09:32:39.138Z,690.08
2024-02-05T09:33:43.923Z,683.30
2024-02-05T09:34:46.137Z,691.88
2024-02-05T09:35:51.007Z,700.13
2024-02-05T09:36:53.221Z,704.47
2024-02-05T09:37:57.995Z,685.78
2024-02-05T09:39:00.153Z,687.38
2024-02-05T09:40:04.906Z,688.88
2024-02-05T09:41:08.326Z,678.10
2024-02-05T09:42:15.272Z,669.55
2024-02-05T09:43:20.110Z,655.05
2024-02-05T09:44:30.519Z,664.22
2024-02-05T09:45:36.660Z,644.85
2024-02-05T09:46:47.748Z,670.83
2024-02-05T09:47:51.916Z,637.05
2024-02-05T09:48:58.540Z,619.35
2024-02-05T09:50:02.369Z,628.42
2024-02-05T09:51:08.232Z,638.28
2024-02-05T09:52:12.536Z,664.38
2024-02-05T09:53:18.421Z,683.35
2024-02-05T09:54:22.830Z,673.00
2024-02-05T09:55:29.564Z,677.58
2024-02-05T09:56:35.687Z,679.70
2024-02-05T09:57:41.303Z,679.20
2024-02-05T09:58:43.574Z,174.73
2024-02-05T09:59:45.797Z,244.10
2024-02-05T10:00:50.674Z,278.88
2024-02-05T10:01:57.088Z,334.25
2024-02-05T10:03:03.395Z,369.85
2024-02-05T10:04:09.361Z,245.93
2024-02-05T10:05:18.762Z,648.50
2024-02-05T10:06:24.232Z,653.65
2024-02-05T10:07:30.744Z,672.35
2024-02-05T10:08:33.602Z,667.65
2024-02-05T10:09:40.437Z,656.92
2024-02-05T10:10:45.641Z,673.35
2024-02-05T10:11:53.561Z,680.92
2024-02-05T10:12:57.879Z,658.88
2024-02-05T10:14:03.271Z,686.80
2024-02-05T10:15:07.054Z,652.95
2024-02-05T10:16:09.402Z,622.50
2024-02-05T10:17:17.001Z,499.48
2024-02-05T10:18:19.252Z,36.03
2024-02-05T10:19:22.740Z,213.73
2024-02-05T10:20:34.455Z,484.80
2024-02-05T10:21:36.980Z,11.07
2024-02-05T10:22:48.116Z,13.15
2024-02-05T10:23:53.916Z,27.70
2024-02-05T10:25:01.129Z,43.45
2024-02-05T10:26:04.338Z,84.72
2024-02-05T10:27:09.346Z,87.63
2024-02-05T10:28:11.557Z,99.13
2024-02-05T10:29:16.278Z,191.65
2024-02-05T10:30:18.802Z,282.58
2024-02-05T10:31:23.674Z,83.00
2024-02-05T10:32:28.904Z,140.98
2024-02-05T10:33:34.108Z,108.63
2024-02-05T10:34:36.630Z,89.65
2024-02-05T10:35:42.882Z,102.75
2024-02-05T10:36:45.116Z,140.00
2024-02-05T10:37:49.865Z,404.67
2024-02-05T10:38:52.638Z,458.65
2024-02-05T10:40:07.025Z,541.33
2024-02-05T10:41:09.644Z,544.95
2024-02-05T10:42:16.568Z,546.53
2024-02-05T10:43:19.089Z,527.45
2024-02-05T10:44:33.939Z,414.38
2024-02-05T10:45:43.163Z,459.92
2024-02-05T10:46:51.975Z,464.80
2024-02-05T10:47:58.089Z,556.10
2024-02-05T10:49:04.198Z,541.17
2024-02-05T10:50:11.754Z,513.85
2024-02-05T10:51:18.284Z,537.47
2024-02-05T10:52:22.329Z,500.35
2024-02-05T10:53:30.440Z,436.63
2024-02-05T10:54:34.310Z,331.63
2024-02-05T10:55:42.184Z,432.33
2024-02-05T10:56:45.187Z,554.90
2024-02-05T10:57:50.949Z,132.75
2024-02-05T10:58:56.538Z,604.92
2024-02-05T11:00:03.124Z,677.05
2024-02-05T11:01:07.100Z,445.20
2024-02-05T11:02:18.771Z,459.88
2024-02-05T11:04:33.769Z,12.23
2024-02-05T11:05:37.389Z,541.78
2024-02-05T11:06:47.054Z,660.22
2024-02-05T11:07:53.955Z,672.17
2024-02-05T11:08:59.004Z,671.03
2024-02-05T11:10:05.663Z,543.40
2024-02-05T11:11:16.200Z,615.42
2024-02-05T11:12:22.955Z,435.08
2024-02-05T11:13:33.384Z,466.95
2024-02-05T11:14:37.660Z,497.02
2024-02-05T11:15:44.385Z,512.72
2024-02-05T11:16:47.777Z,525.63
2024-02-05T11:17:55.184Z,566.75
2024-02-05T11:19:03.178Z,552.97
2024-02-05T11:20:13.995Z,534.05
2024-02-05T11:21:20.052Z,508.20
2024-02-05T11:22:27.920Z,555.25
2024-02-05T11:23:33.511Z,596.08
2024-02-05T11:24:36.275Z,544.80
2024-02-05T11:25:41.111Z,544.65
2024-02-05T11:26:43.868Z,589.90
2024-02-05T11:27:48.789Z,548.88
2024-02-05T11:28:51.300Z,657.42
2024-02-05T11:29:56.110Z,704.05
2024-02-05T11:31:02.465Z,736.95
2024-02-05T11:32:07.649Z,615.10
2024-02-05T11:33:11.205Z,724.63
2024-02-05T11:34:20.714Z,723.83
2024-02-05T11:35:28.944Z,752.55
2024-02-05T11:36:34.021Z,97.32
2024-02-05T11:37:37.794Z,431.30
2024-02-05T11:38:43.977Z,711.90
2024-02-05T11:39:46.847Z,847.63
2024-02-05T11:40:53.099Z,786.08
2024-02-05T11:41:55.255Z,862.95
2024-02-05T11:43:11.423Z,863.33
2024-02-05T11:44:15.541Z,769.40
2024-02-05T11:45:20.646Z,532.83
2024-02-05T11:46:36.734Z,711.28
2024-02-05T11:47:41.745Z,869.03
2024-02-05T11:48:44.152Z,853.65
2024-02-05T11:49:53.858Z,854.60
2024-02-05T11:51:00.098Z,864.80
2024-02-05T11:52:05.454Z,856.72
2024-02-05T11:53:07.612Z,863.22
2024-02-05T11:54:10.053Z,897.35
2024-02-05T11:55:19.682Z,683.28
2024-02-05T11:56:21.947Z,467.58
2024-02-05T11:57:28.201Z,715.25
2024-02-05T11:58:32.066Z,870.85
2024-02-05T11:59:37.113Z,854.30
2024-02-05T12:00:39.271Z,827.85
2024-02-05T12:01:44.487Z,825.38
2024-02-05T12:02:47.006Z,828.70
2024-02-05T12:03:50.637Z,828.72
2024-02-05T12:04:59.801Z,848.40
2024-02-05T12:06:02.053Z,808.90
2024-02-05T12:07:08.178Z,867.72
2024-02-05T12:08:10.800Z,861.25
2024-02-05T12:09:16.888Z,867.33
2024-02-05T12:10:19.255Z,868.58
2024-02-05T12:11:25.289Z,860.10
2024-02-05T12:12:27.642Z,861.97
2024-02-05T12:13:35.559Z,852.15
2024-02-05T12:14:38.039Z,814.13
2024-02-05T12:15:43.924Z,799.55
2024-02-05T12:16:46.175Z,803.28
2024-02-05T12:17:48.506Z,809.08
2024-02-05T12:19:08.723Z,817.45
2024-02-05T12:20:20.905Z,799.38
2024-02-05T12:21:26.723Z,784.40
2024-02-05T12:22:29.329Z,805.08
2024-02-05T12:23:31.603Z,812.88
2024-02-05T12:24:36.417Z,824.03
2024-02-05T12:25:42.613Z,843.00
2024-02-05T12:26:49.430Z,829.55
2024-02-05T12:27:52.686Z,831.83
2024-02-05T12:28:58.782Z,812.40
2024-02-05T12:30:06.519Z,869.30
2024-02-05T12:31:11.538Z,893.05
2024-02-05T12:32:13.717Z,879.03
2024-02-05T12:33:16.929Z,891.63
2024-02-05T12:34:22.572Z,884.85
2024-02-05T12:35:27.933Z,885.95
2024-02-05T12:36:38.084Z,888.38
2024-02-05T12:37:41.192Z,879.15
2024-02-05T12:38:45.999Z,871.55
2024-02-05T12:39:52.857Z,863.83
2024-02-05T12:40:59.223Z,849.55
2024-02-05T12:42:01.634Z,856.40
2024-02-05T12:43:03.893Z,851.80
2024-02-05T12:44:16.298Z,865.92
2024-02-05T12:45:22.393Z,862.65
2024-02-05T12:46:27.372Z,856.03
2024-02-05T12:47:29.699Z,843.47
2024-02-05T12:48:35.930Z,833.08
2024-02-05T12:49:38.720Z,776.28
2024-02-05T12:50:46.153Z,779.10
2024-02-05T12:51:48.820Z,758.75
2024-02-05T12:52:54.646Z,770.47
2024-02-05T12:53:56.852Z,780.67
2024-02-05T12:55:02.591Z,776.47
2024-02-05T12:56:05.805Z,822.08
2024-02-05T12:57:11.283Z,800.50
2024-02-05T12:58:13.454Z,811.42
2024-02-05T12:59:19.381Z,809.58
2024-02-05T13:00:22.570Z,812.92
2024-02-05T13:01:27.494Z,814.55
2024-02-05T13:02:30.884Z,816.90
2024-02-05T13:03:38.741Z,824.50
2024-02-05T13:04:43.940Z,802.03
2024-02-05T13:05:52.686Z,816.35
2024-02-05T13:07:02.543Z,820.30
2024-02-05T13:08:10.659Z,803.60
2024-02-05T13:09:13.311Z,818.28
2024-02-05T13:10:18.554Z,823.05
2024-02-05T13:11:20.819Z,834.38
2024-02-05T13:12:25.633Z,846.78
2024-02-05T13:13:28.989Z,840.50
2024-02-05T13:14:34.544Z,831.95
2024-02-05T13:15:36.839Z,832.38
2024-02-05T13:16:42.382Z,838.75
2024-02-05T13:17:45.810Z,841.95
2024-02-05T13:18:50.753Z,852.90
2024-02-05T13:19:53.385Z,830.90
2024-02-05T13:21:00.761Z,837.67
2024-02-05T13:22:06.923Z,845.20
2024-02-05T13:23:13.159Z,849.85
2024-02-05T13:24:16.103Z,890.42
2024-02-05T13:25:22.219Z,886.67
2024-02-05T13:26:24.650Z,900.50
2024-02-05T13:27:29.364Z,891.78
2024-02-05T13:28:32.274Z,893.75
2024-02-05T13:29:37.301Z,866.67
2024-02-05T13:30:40.445Z,862.28
2024-02-05T13:31:45.250Z,866.83
2024-02-05T13:32:47.444Z,852.00
2024-02-05T13:33:52.641Z,861.42